UPSVAC Airport Information Service

Fargo Hector International Airport

ICAO: KFAR Country: United States
Latitude: 46.9207 Longitude: -96.8157
Latest Arrival : UPS2939 (KSDF-KFAR) Latest Departure : UPS1018 (KFAR-KSDF)


WX CaptureLIVE
Data provided by noaa.gov | Fetched at 01:01:50

METAR : KFAR 150053Z 03011KT 10SM CLR 27/07 A3010 RMK AO2 SLP190 T02670067 PNO $

TAF : KFAR 142330Z 1500/1524 02011KT P6SM SKC FM150300 03005KT P6SM SKC FM151600 15008KT P6SM SKC


Runway Data for KFAR
Data provided by openaviationdata.com

Runway ID Mag Var Hdg Length Elevation Surface ILS Freq ILS Id ILS Slope
9 4 86° 6288 ft 902 ft Concrete -- -- --
13 4 133° 3798 ft 902 ft Asphalt -- -- --
18 4 176° 8998 ft 902 ft Concrete 108.9 IAAM 3
27 4 266° 6288 ft 902 ft Concrete -- -- --
31 4 313° 3798 ft 902 ft Asphalt -- -- --
36 4 356° 8998 ft 902 ft Concrete 110.3 IFAR 3

Fargo Hector International Airport, United States
Use only for reference purposes



Not for navigational purposes.